Flugplatz Butzweilerhof (ETBB)

Hier findest Du alle Informationen zum Flugplatz Butzweilerhof (ETBB).

Informationen für Piloten zum Flugplatz Butzweilerhof

Hier findest Du alle relevanten Informationen, die Du als Pilot benötigst, um Butzweilerhof anzufliegen.

Flugplatz: Butzweilerhof ICAO-Code: ETBB
Frequenz Turm: 122,100 Mhz GAFOR Gebiet: 34
Frequenz Ground: 122,100 Mhz Mogas: nein
Platzrunde: - Landegebühr: -
Platzhöhe: - Sunrise: 03:32 Uhr UTC
Pisten: Sunset: 19:43 Uhr UTC

Flugwetter am Flugplatz Butzweilerhof

Die METAR Information stammen aus EDDK (22.13 km entfernt).

METAR Code:
2020/06/18 11:20
EDDK 181120Z VRB06G16KT 9999 SCT043 23/10 Q1012 NOSIG

Flugschulen am Flugplatz Butzweilerhof

Am Flugplatz Butzweilerhof gibt es leider keine Flugschule.

Benachbarte Flugplätze und Flugschulen

Es gibt 18 weitere Flugplätze in einem Umkreis von 50 km um den Flugplatz Butzweilerhof.

Jetzt anmelden

Passwort vergessen

Umfrage Archiv

Wären Rettungsgeräte keine Pflicht mehr, würdet Ihr Euer UL trotzdem mit einem ausstatten?

Ja
82.1 %
Nein
17.9 %
Stimmen: 207 | Diskussion
Anzeige: Roland Aircraft
Statistik Alle Mitglieder

Aktuell sind 42 Besucher online, davon 4 Mitglieder und 38 Gäste.


Mitglieder online:
EchoRalf  homas  b3nn0  skyfool 

Anzeige: VFR Sprechfunk Simulator


Anzeige: Pocket FMS